sensor_id;sensor_type;location;lat;lon;timestamp;pressure;altitude;pressure_sealevel;temperature;humidity
24962;BME280;12992;50.884;13.668;2023-04-27T00:00:54;97368.28;;;2.05;100.00
24962;BME280;12992;50.884;13.668;2023-04-27T00:03:20;97365.34;;;2.00;100.00
24962;BME280;12992;50.884;13.668;2023-04-27T00:05:45;97376.53;;;2.04;100.00
24962;BME280;12992;50.884;13.668;2023-04-27T00:08:11;97365.59;;;2.05;100.00
24962;BME280;12992;50.884;13.668;2023-04-27T00:10:36;97344.25;;;1.90;100.00
24962;BME280;12992;50.884;13.668;2023-04-27T00:13:01;97346.94;;;1.90;100.00
24962;BME280;12992;50.884;13.668;2023-04-27T00:15:27;97359.53;;;1.90;100.00
24962;BME280;12992;50.884;13.668;2023-04-27T00:17:53;97377.38;;;2.04;100.00
24962;BME280;12992;50.884;13.668;2023-04-27T00:20:18;97373.00;;;2.03;100.00
24962;BME280;12992;50.884;13.668;2023-04-27T00:22:45;97367.41;;;1.98;100.00
24962;BME280;12992;50.884;13.668;2023-04-27T00:25:10;97374.88;;;2.03;100.00
24962;BME280;12992;50.884;13.668;2023-04-27T00:27:36;97370.31;;;2.03;100.00
24962;BME280;12992;50.884;13.668;2023-04-27T00:30:01;97394.75;;;2.15;100.00
24962;BME280;12992;50.884;13.668;2023-04-27T00:32:27;97397.66;;;2.20;100.00
24962;BME280;12992;50.884;13.668;2023-04-27T00:34:52;97405.34;;;2.23;100.00
24962;BME280;12992;50.884;13.668;2023-04-27T00:37:17;97415.47;;;2.27;100.00
24962;BME280;12992;50.884;13.668;2023-04-27T00:39:44;97412.19;;;2.32;100.00
24962;BME280;12992;50.884;13.668;2023-04-27T00:42:09;97414.25;;;2.37;100.00
24962;BME280;12992;50.884;13.668;2023-04-27T00:44:39;97419.25;;;2.40;100.00
24962;BME280;12992;50.884;13.668;2023-04-27T00:47:04;97414.50;;;2.42;100.00
24962;BME280;12992;50.884;13.668;2023-04-27T00:49:30;97422.97;;;2.45;100.00
24962;BME280;12992;50.884;13.668;2023-04-27T00:51:56;97394.41;;;2.31;100.00
24962;BME280;12992;50.884;13.668;2023-04-27T00:54:22;97412.41;;;2.37;100.00
24962;BME280;12992;50.884;13.668;2023-04-27T00:56:49;97396.88;;;2.26;100.00
24962;BME280;12992;50.884;13.668;2023-04-27T00:59:15;97405.97;;;2.25;100.00
24962;BME280;12992;50.884;13.668;2023-04-27T01:01:41;97407.63;;;2.26;100.00
24962;BME280;12992;50.884;13.668;2023-04-27T01:04:06;97391.03;;;2.16;100.00
24962;BME280;12992;50.884;13.668;2023-04-27T01:06:31;97369.28;;;1.97;100.00
24962;BME280;12992;50.884;13.668;2023-04-27T01:08:57;97369.03;;;1.92;100.00
24962;BME280;12992;50.884;13.668;2023-04-27T01:11:22;97374.81;;;1.89;100.00
24962;BME280;12992;50.884;13.668;2023-04-27T01:13:47;97369.63;;;1.81;100.00
24962;BME280;12992;50.884;13.668;2023-04-27T01:16:13;97373.50;;;1.72;100.00
24962;BME280;12992;50.884;13.668;2023-04-27T01:18:38;97374.72;;;1.69;100.00
24962;BME280;12992;50.884;13.668;2023-04-27T01:21:05;97380.09;;;1.69;100.00
24962;BME280;12992;50.884;13.668;2023-04-27T01:23:30;97359.75;;;1.54;100.00
24962;BME280;12992;50.884;13.668;2023-04-27T01:25:55;97383.97;;;1.60;100.00
24962;BME280;12992;50.884;13.668;2023-04-27T01:28:21;97389.34;;;1.67;100.00
24962;BME280;12992;50.884;13.668;2023-04-27T01:30:46;97380.69;;;1.65;100.00
24962;BME280;12992;50.884;13.668;2023-04-27T01:33:11;97398.28;;;1.74;100.00
24962;BME280;12992;50.884;13.668;2023-04-27T01:35:38;97395.59;;;1.74;100.00
24962;BME280;12992;50.884;13.668;2023-04-27T01:38:03;97392.91;;;1.74;100.00
24962;BME280;12992;50.884;13.668;2023-04-27T01:40:29;97386.66;;;1.67;100.00
24962;BME280;12992;50.884;13.668;2023-04-27T01:42:54;97370.50;;;1.54;100.00
24962;BME280;12992;50.884;13.668;2023-04-27T01:45:20;97376.44;;;1.49;100.00
24962;BME280;12992;50.884;13.668;2023-04-27T01:47:45;97382.00;;;1.48;100.00
24962;BME280;12992;50.884;13.668;2023-04-27T01:50:11;97386.13;;;1.44;100.00
24962;BME280;12992;50.884;13.668;2023-04-27T01:52:37;97382.41;;;1.45;100.00
24962;BME280;12992;50.884;13.668;2023-04-27T01:55:03;97380.31;;;1.40;100.00
24962;BME280;12992;50.884;13.668;2023-04-27T01:57:28;97377.41;;;1.35;100.00
24962;BME280;12992;50.884;13.668;2023-04-27T01:59:54;97372.59;;;1.30;100.00
24962;BME280;12992;50.884;13.668;2023-04-27T02:02:20;97382.72;;;1.28;100.00
24962;BME280;12992;50.884;13.668;2023-04-27T02:04:45;97376.09;;;1.24;100.00
24962;BME280;12992;50.884;13.668;2023-04-27T02:07:11;97374.59;;;1.15;100.00
24962;BME280;12992;50.884;13.668;2023-04-27T02:09:36;97373.69;;;1.08;100.00
24962;BME280;12992;50.884;13.668;2023-04-27T02:12:01;97363.75;;;1.02;100.00
24962;BME280;12992;50.884;13.668;2023-04-27T02:14:27;97388.13;;;1.07;100.00
24962;BME280;12992;50.884;13.668;2023-04-27T02:16:52;97405.91;;;1.14;100.00
24962;BME280;12992;50.884;13.668;2023-04-27T02:19:17;97392.47;;;1.08;100.00
24962;BME280;12992;50.884;13.668;2023-04-27T02:21:42;97385.38;;;1.00;100.00
24962;BME280;12992;50.884;13.668;2023-04-27T02:24:08;97400.25;;;1.03;100.00
24962;BME280;12992;50.884;13.668;2023-04-27T02:26:34;97396.94;;;1.01;100.00
24962;BME280;12992;50.884;13.668;2023-04-27T02:29:01;97390.28;;;0.97;100.00
24962;BME280;12992;50.884;13.668;2023-04-27T02:31:28;97382.78;;;0.85;100.00
24962;BME280;12992;50.884;13.668;2023-04-27T02:33:53;97399.50;;;0.88;100.00
24962;BME280;12992;50.884;13.668;2023-04-27T02:36:18;97388.06;;;0.79;100.00
24962;BME280;12992;50.884;13.668;2023-04-27T02:38:44;97401.75;;;0.84;100.00
24962;BME280;12992;50.884;13.668;2023-04-27T02:41:09;97395.56;;;0.83;100.00
24962;BME280;12992;50.884;13.668;2023-04-27T02:43:34;97395.13;;;0.80;100.00
24962;BME280;12992;50.884;13.668;2023-04-27T02:46:03;97401.31;;;0.80;100.00
24962;BME280;12992;50.884;13.668;2023-04-27T02:48:30;97415.97;;;0.84;100.00
24962;BME280;12992;50.884;13.668;2023-04-27T02:50:55;97386.75;;;0.68;100.00
24962;BME280;12992;50.884;13.668;2023-04-27T02:53:21;97387.53;;;0.62;100.00
24962;BME280;12992;50.884;13.668;2023-04-27T02:55:47;97400.28;;;0.60;100.00
24962;BME280;12992;50.884;13.668;2023-04-27T02:58:13;97403.59;;;0.62;100.00
24962;BME280;12992;50.884;13.668;2023-04-27T03:00:39;97416.69;;;0.72;100.00
24962;BME280;12992;50.884;13.668;2023-04-27T03:03:06;97410.88;;;0.68;100.00
24962;BME280;12992;50.884;13.668;2023-04-27T03:05:32;97383.75;;;0.56;100.00
24962;BME280;12992;50.884;13.668;2023-04-27T03:07:57;97403.22;;;0.65;100.00
24962;BME280;12992;50.884;13.668;2023-04-27T03:10:23;97389.03;;;0.50;100.00
24962;BME280;12992;50.884;13.668;2023-04-27T03:12:48;97413.78;;;0.52;100.00
24962;BME280;12992;50.884;13.668;2023-04-27T03:15:14;97408.06;;;0.55;100.00
24962;BME280;12992;50.884;13.668;2023-04-27T03:17:39;97414.25;;;0.55;100.00
24962;BME280;12992;50.884;13.668;2023-04-27T03:20:05;97411.78;;;0.54;100.00
24962;BME280;12992;50.884;13.668;2023-04-27T03:22:34;97421.47;;;0.55;100.00
24962;BME280;12992;50.884;13.668;2023-04-27T03:25:01;97417.50;;;0.51;100.00
24962;BME280;12992;50.884;13.668;2023-04-27T03:27:27;97410.97;;;0.39;100.00
24962;BME280;12992;50.884;13.668;2023-04-27T03:29:52;97424.75;;;0.36;100.00
24962;BME280;12992;50.884;13.668;2023-04-27T03:32:18;97424.47;;;0.31;100.00
24962;BME280;12992;50.884;13.668;2023-04-27T03:34:43;97452.63;;;0.41;100.00
24962;BME280;12992;50.884;13.668;2023-04-27T03:37:09;97448.09;;;0.42;100.00
24962;BME280;12992;50.884;13.668;2023-04-27T03:39:35;97460.75;;;0.48;100.00
24962;BME280;12992;50.884;13.668;2023-04-27T03:42:01;97468.78;;;0.48;100.00
24962;BME280;12992;50.884;13.668;2023-04-27T03:44:27;97446.53;;;0.33;100.00
24962;BME280;12992;50.884;13.668;2023-04-27T03:46:53;97471.38;;;0.41;100.00
24962;BME280;12992;50.884;13.668;2023-04-27T03:49:18;97475.53;;;0.44;100.00
24962;BME280;12992;50.884;13.668;2023-04-27T03:51:43;97471.38;;;0.41;100.00
24962;BME280;12992;50.884;13.668;2023-04-27T03:54:09;97441.50;;;0.23;100.00
24962;BME280;12992;50.884;13.668;2023-04-27T03:56:34;97461.34;;;0.28;100.00
24962;BME280;12992;50.884;13.668;2023-04-27T03:59:03;97487.84;;;0.38;100.00
24962;BME280;12992;50.884;13.668;2023-04-27T04:01:31;97479.31;;;0.35;100.00
24962;BME280;12992;50.884;13.668;2023-04-27T04:03:58;97481.66;;;0.38;100.00
24962;BME280;12992;50.884;13.668;2023-04-27T04:06:23;97497.22;;;0.49;100.00
24962;BME280;12992;50.884;13.668;2023-04-27T04:08:49;97468.91;;;0.40;100.00
24962;BME280;12992;50.884;13.668;2023-04-27T04:11:14;97499.91;;;0.49;100.00
24962;BME280;12992;50.884;13.668;2023-04-27T04:13:40;97503.63;;;0.48;100.00
24962;BME280;12992;50.884;13.668;2023-04-27T04:16:07;97510.63;;;0.49;100.00
24962;BME280;12992;50.884;13.668;2023-04-27T04:18:34;97501.56;;;0.50;100.00
24962;BME280;12992;50.884;13.668;2023-04-27T04:20:59;97516.44;;;0.52;100.00
24962;BME280;12992;50.884;13.668;2023-04-27T04:23:25;97516.53;;;0.59;100.00
24962;BME280;12992;50.884;13.668;2023-04-27T04:25:52;97527.53;;;0.64;100.00
24962;BME280;12992;50.884;13.668;2023-04-27T04:28:19;97533.53;;;0.66;100.00
24962;BME280;12992;50.884;13.668;2023-04-27T04:30:44;97526.31;;;0.67;100.00
24962;BME280;12992;50.884;13.668;2023-04-27T04:33:10;97553.09;;;0.81;100.00
24962;BME280;12992;50.884;13.668;2023-04-27T04:35:39;97570.22;;;1.02;100.00
24962;BME280;12992;50.884;13.668;2023-04-27T04:38:07;97575.47;;;1.10;100.00
24962;BME280;12992;50.884;13.668;2023-04-27T04:40:33;97549.78;;;1.01;100.00
24962;BME280;12992;50.884;13.668;2023-04-27T04:42:58;97579.44;;;1.14;100.00
24962;BME280;12992;50.884;13.668;2023-04-27T04:45:24;97563.81;;;1.18;100.00
24962;BME280;12992;50.884;13.668;2023-04-27T04:47:50;97589.00;;;1.23;100.00
24962;BME280;12992;50.884;13.668;2023-04-27T04:50:15;97603.69;;;1.42;100.00
24962;BME280;12992;50.884;13.668;2023-04-27T04:52:41;97598.63;;;1.54;100.00
24962;BME280;12992;50.884;13.668;2023-04-27T04:55:06;97577.56;;;1.51;100.00
24962;BME280;12992;50.884;13.668;2023-04-27T04:57:32;97597.69;;;1.61;100.00
24962;BME280;12992;50.884;13.668;2023-04-27T04:59:57;97612.31;;;1.80;100.00
24962;BME280;12992;50.884;13.668;2023-04-27T05:02:22;97600.78;;;1.86;100.00
24962;BME280;12992;50.884;13.668;2023-04-27T05:04:48;97595.03;;;1.89;100.00
24962;BME280;12992;50.884;13.668;2023-04-27T05:07:13;97611.22;;;2.03;100.00
24962;BME280;12992;50.884;13.668;2023-04-27T05:09:39;97615.84;;;2.09;100.00
24962;BME280;12992;50.884;13.668;2023-04-27T05:12:04;97627.72;;;2.21;100.00
24962;BME280;12992;50.884;13.668;2023-04-27T05:14:31;97628.59;;;2.28;100.00
24962;BME280;12992;50.884;13.668;2023-04-27T05:16:56;97627.19;;;2.32;100.00
24962;BME280;12992;50.884;13.668;2023-04-27T05:19:21;97663.88;;;2.74;100.00
24962;BME280;12992;50.884;13.668;2023-04-27T05:21:47;97716.03;;;3.62;100.00
24962;BME280;12992;50.884;13.668;2023-04-27T05:24:12;97753.53;;;4.71;100.00
24962;BME280;12992;50.884;13.668;2023-04-27T05:26:38;97713.19;;;5.23;97.94
24962;BME280;12992;50.884;13.668;2023-04-27T05:29:03;97683.88;;;5.26;93.18
24962;BME280;12992;50.884;13.668;2023-04-27T05:31:28;97664.50;;;5.43;90.07
24962;BME280;12992;50.884;13.668;2023-04-27T05:33:54;97650.97;;;5.49;87.79
24962;BME280;12992;50.884;13.668;2023-04-27T05:36:19;97624.66;;;5.31;89.36
24962;BME280;12992;50.884;13.668;2023-04-27T05:38:44;97613.50;;;5.21;90.00
24962;BME280;12992;50.884;13.668;2023-04-27T05:41:10;97615.56;;;5.19;92.07
24962;BME280;12992;50.884;13.668;2023-04-27T05:43:35;97615.56;;;5.19;92.52
24962;BME280;12992;50.884;13.668;2023-04-27T05:46:03;97602.53;;;5.09;92.90
24962;BME280;12992;50.884;13.668;2023-04-27T05:48:28;97597.72;;;5.18;90.24
24962;BME280;12992;50.884;13.668;2023-04-27T05:51:00;97605.19;;;5.16;91.26
24962;BME280;12992;50.884;13.668;2023-04-27T05:53:26;97607.22;;;5.27;89.80
24962;BME280;12992;50.884;13.668;2023-04-27T05:55:51;97612.00;;;5.25;94.70
24962;BME280;12992;50.884;13.668;2023-04-27T05:58:16;97650.13;;;5.49;94.88
24962;BME280;12992;50.884;13.668;2023-04-27T06:00:42;97664.13;;;5.71;94.99
24962;BME280;12992;50.884;13.668;2023-04-27T06:03:07;97672.25;;;6.09;86.14
24962;BME280;12992;50.884;13.668;2023-04-27T06:05:32;97670.94;;;6.43;81.08
24962;BME280;12992;50.884;13.668;2023-04-27T06:07:58;97666.91;;;6.77;76.92
24962;BME280;12992;50.884;13.668;2023-04-27T06:10:24;97665.34;;;6.88;78.06
24962;BME280;12992;50.884;13.668;2023-04-27T06:12:49;97654.38;;;7.01;76.92
24962;BME280;12992;50.884;13.668;2023-04-27T06:15:14;97663.16;;;7.15;77.21
24962;BME280;12992;50.884;13.668;2023-04-27T06:17:40;97663.78;;;7.35;73.92
24962;BME280;12992;50.884;13.668;2023-04-27T06:20:08;97648.41;;;7.47;71.38
24962;BME280;12992;50.884;13.668;2023-04-27T06:22:34;97654.28;;;7.62;71.19
24962;BME280;12992;50.884;13.668;2023-04-27T06:25:01;97659.25;;;7.77;71.21
24962;BME280;12992;50.884;13.668;2023-04-27T06:27:26;97676.66;;;7.88;74.11
24962;BME280;12992;50.884;13.668;2023-04-27T06:29:51;97688.28;;;8.07;74.04
24962;BME280;12992;50.884;13.668;2023-04-27T06:32:17;97677.09;;;8.15;73.88
24962;BME280;12992;50.884;13.668;2023-04-27T06:34:42;97705.47;;;8.31;73.13
24962;BME280;12992;50.884;13.668;2023-04-27T06:37:07;97678.78;;;8.28;72.32
24962;BME280;12992;50.884;13.668;2023-04-27T06:39:33;97671.84;;;8.32;70.63
24962;BME280;12992;50.884;13.668;2023-04-27T06:41:59;97649.41;;;8.24;70.29
24962;BME280;12992;50.884;13.668;2023-04-27T06:44:24;97689.16;;;8.61;70.75
24962;BME280;12992;50.884;13.668;2023-04-27T06:46:50;97666.59;;;8.60;70.22
24962;BME280;12992;50.884;13.668;2023-04-27T06:49:15;97634.25;;;8.47;67.53
24962;BME280;12992;50.884;13.668;2023-04-27T06:51:41;97653.63;;;8.62;67.14
24962;BME280;12992;50.884;13.668;2023-04-27T06:54:06;97655.28;;;8.63;68.25
24962;BME280;12992;50.884;13.668;2023-04-27T06:56:31;97652.56;;;8.75;65.77
24962;BME280;12992;50.884;13.668;2023-04-27T06:58:57;97609.34;;;8.62;64.99
24962;BME280;12992;50.884;13.668;2023-04-27T07:01:22;97629.06;;;8.69;65.10
24962;BME280;12992;50.884;13.668;2023-04-27T07:03:47;97635.19;;;8.64;68.06
24962;BME280;12992;50.884;13.668;2023-04-27T07:06:13;97641.94;;;8.73;67.40
24962;BME280;12992;50.884;13.668;2023-04-27T07:08:39;97590.94;;;8.40;70.60
24962;BME280;12992;50.884;13.668;2023-04-27T07:11:04;97633.44;;;8.58;70.96
24962;BME280;12992;50.884;13.668;2023-04-27T07:13:30;97685.03;;;8.82;71.66
24962;BME280;12992;50.884;13.668;2023-04-27T07:15:55;97681.75;;;9.03;69.31
24962;BME280;12992;50.884;13.668;2023-04-27T07:18:22;97673.91;;;9.18;64.92
24962;BME280;12992;50.884;13.668;2023-04-27T07:20:48;97715.25;;;9.44;67.26
24962;BME280;12992;50.884;13.668;2023-04-27T07:23:13;97719.00;;;9.66;65.77
24962;BME280;12992;50.884;13.668;2023-04-27T07:25:38;97707.16;;;9.72;63.36
24962;BME280;12992;50.884;13.668;2023-04-27T07:28:04;97614.81;;;9.25;63.28
24962;BME280;12992;50.884;13.668;2023-04-27T07:30:29;97574.50;;;8.94;63.62
24962;BME280;12992;50.884;13.668;2023-04-27T07:32:55;97627.63;;;9.13;64.79
24962;BME280;12992;50.884;13.668;2023-04-27T07:35:20;97636.56;;;9.25;65.09
24962;BME280;12992;50.884;13.668;2023-04-27T07:37:46;97663.00;;;9.42;65.48
24962;BME280;12992;50.884;13.668;2023-04-27T07:40:12;97627.09;;;9.40;62.61
24962;BME280;12992;50.884;13.668;2023-04-27T07:42:41;97586.28;;;9.11;63.62
24962;BME280;12992;50.884;13.668;2023-04-27T07:45:10;97625.00;;;9.18;64.77
24962;BME280;12992;50.884;13.668;2023-04-27T07:47:36;97584.75;;;9.03;64.17
24962;BME280;12992;50.884;13.668;2023-04-27T07:50:02;97606.38;;;9.10;62.80
24962;BME280;12992;50.884;13.668;2023-04-27T07:52:28;97630.31;;;9.25;62.67
24962;BME280;12992;50.884;13.668;2023-04-27T07:54:53;97638.66;;;9.35;63.62
24962;BME280;12992;50.884;13.668;2023-04-27T07:57:18;97675.59;;;9.59;63.65
24962;BME280;12992;50.884;13.668;2023-04-27T07:59:44;97699.41;;;9.92;58.93
24962;BME280;12992;50.884;13.668;2023-04-27T08:02:09;97720.09;;;10.50;58.55
24962;BME280;12992;50.884;13.668;2023-04-27T08:04:35;97761.09;;;10.89;59.12
24962;BME280;12992;50.884;13.668;2023-04-27T08:07:00;97782.50;;;11.31;61.62
24962;BME280;12992;50.884;13.668;2023-04-27T08:09:26;97801.66;;;11.75;59.59
24962;BME280;12992;50.884;13.668;2023-04-27T08:11:51;97826.19;;;12.30;58.42
24962;BME280;12992;50.884;13.668;2023-04-27T08:14:16;97824.22;;;12.74;56.82
24962;BME280;12992;50.884;13.668;2023-04-27T08:16:42;97730.75;;;12.45;54.34
24962;BME280;12992;50.884;13.668;2023-04-27T08:19:09;97663.25;;;12.14;53.05
24962;BME280;12992;50.884;13.668;2023-04-27T08:21:35;97731.69;;;12.56;52.30
24962;BME280;12992;50.884;13.668;2023-04-27T08:24:02;97653.72;;;12.16;51.56
24962;BME280;12992;50.884;13.668;2023-04-27T08:26:27;97703.91;;;12.37;52.74
24962;BME280;12992;50.884;13.668;2023-04-27T08:28:52;97671.28;;;12.26;51.17
24962;BME280;12992;50.884;13.668;2023-04-27T08:31:18;97626.59;;;11.83;55.71
24962;BME280;12992;50.884;13.668;2023-04-27T08:33:43;97678.81;;;12.13;54.76
24962;BME280;12992;50.884;13.668;2023-04-27T08:36:09;97779.59;;;12.96;54.91
24962;BME280;12992;50.884;13.668;2023-04-27T08:38:34;97809.59;;;13.45;53.85
24962;BME280;12992;50.884;13.668;2023-04-27T08:41:00;97790.56;;;14.17;51.28
24962;BME280;12992;50.884;13.668;2023-04-27T08:43:25;97812.97;;;14.62;49.61
24962;BME280;12992;50.884;13.668;2023-04-27T08:45:50;97873.69;;;15.37;49.16
24962;BME280;12992;50.884;13.668;2023-04-27T08:48:17;97759.81;;;14.83;49.31
24962;BME280;12992;50.884;13.668;2023-04-27T08:50:43;97674.78;;;14.48;49.85
24962;BME280;12992;50.884;13.668;2023-04-27T08:53:16;97660.47;;;14.30;48.57
24962;BME280;12992;50.884;13.668;2023-04-27T08:55:42;97700.59;;;14.67;47.88
24962;BME280;12992;50.884;13.668;2023-04-27T08:58:07;97706.59;;;14.74;48.58
24962;BME280;12992;50.884;13.668;2023-04-27T09:00:40;97873.34;;;16.40;47.28
24962;BME280;12992;50.884;13.668;2023-04-27T09:03:24;97884.69;;;17.81;44.67
24962;BME280;12992;50.884;13.668;2023-04-27T09:05:50;97723.31;;;17.17;44.77
24962;BME280;12992;50.884;13.668;2023-04-27T09:08:15;97681.69;;;16.51;45.18
24962;BME280;12992;50.884;13.668;2023-04-27T09:10:48;97784.88;;;17.26;45.72
24962;BME280;12992;50.884;13.668;2023-04-27T09:13:14;97855.25;;;19.02;40.88
24962;BME280;12992;50.884;13.668;2023-04-27T09:15:41;97785.16;;;19.68;40.30
24962;BME280;12992;50.884;13.668;2023-04-27T09:18:13;97824.72;;;19.96;40.81
24962;BME280;12992;50.884;13.668;2023-04-27T09:20:48;97784.13;;;20.65;40.05
24962;BME280;12992;50.884;13.668;2023-04-27T09:23:31;97827.47;;;21.33;39.37
24962;BME280;12992;50.884;13.668;2023-04-27T09:25:58;97759.75;;;21.03;41.43
24962;BME280;12992;50.884;13.668;2023-04-27T09:28:24;97593.44;;;19.09;40.21
24962;BME280;12992;50.884;13.668;2023-04-27T09:30:56;97522.91;;;17.86;42.20
24962;BME280;12992;50.884;13.668;2023-04-27T09:35:48;97439.91;;;15.23;44.01
24962;BME280;12992;50.884;13.668;2023-04-27T09:38:16;97403.50;;;14.37;46.37
24962;BME280;12992;50.884;13.668;2023-04-27T09:40:42;97383.28;;;14.03;46.72
24962;BME280;12992;50.884;13.668;2023-04-27T09:43:07;97416.97;;;13.57;49.73
24962;BME280;12992;50.884;13.668;2023-04-27T09:45:34;97484.59;;;13.93;50.82
24962;BME280;12992;50.884;13.668;2023-04-27T09:48:01;97445.19;;;13.94;48.43
24962;BME280;12992;50.884;13.668;2023-04-27T09:50:28;97393.38;;;13.16;48.31
24962;BME280;12992;50.884;13.668;2023-04-27T09:52:53;97325.13;;;12.43;49.35
24962;BME280;12992;50.884;13.668;2023-04-27T09:55:23;97434.28;;;12.85;51.96
24962;BME280;12992;50.884;13.668;2023-04-27T09:58:17;97405.00;;;12.81;50.07
24962;BME280;12992;50.884;13.668;2023-04-27T10:03:47;97347.44;;;11.45;52.18
24962;BME280;12992;50.884;13.668;2023-04-27T10:09:02;97339.31;;;10.91;52.77
24962;BME280;12992;50.884;13.668;2023-04-27T10:11:41;97347.94;;;10.83;54.24
24962;BME280;12992;50.884;13.668;2023-04-27T10:14:09;97378.03;;;10.93;54.38
24962;BME280;12992;50.884;13.668;2023-04-27T10:16:56;97424.56;;;11.41;53.32
24962;BME280;12992;50.884;13.668;2023-04-27T10:19:23;97432.06;;;11.55;53.75
24962;BME280;12992;50.884;13.668;2023-04-27T10:21:56;97488.47;;;12.09;52.58
24962;BME280;12992;50.884;13.668;2023-04-27T10:24:51;97629.50;;;14.20;49.35
24962;BME280;12992;50.884;13.668;2023-04-27T10:27:17;97726.94;;;16.74;46.14
24962;BME280;12992;50.884;13.668;2023-04-27T10:29:48;97795.25;;;19.07;44.21
24962;BME280;12992;50.884;13.668;2023-04-27T10:34:45;97599.03;;;19.64;38.99
24962;BME280;12992;50.884;13.668;2023-04-27T10:37:11;97531.06;;;17.91;46.41
24962;BME280;12992;50.884;13.668;2023-04-27T10:39:40;97583.41;;;18.48;41.98
24962;BME280;12992;50.884;13.668;2023-04-27T10:42:06;97497.31;;;17.99;40.64
24962;BME280;12992;50.884;13.668;2023-04-27T10:44:32;97489.88;;;17.62;40.95
24962;BME280;12992;50.884;13.668;2023-04-27T10:47:13;97483.03;;;16.93;44.07
24962;BME280;12992;50.884;13.668;2023-04-27T10:49:39;97445.25;;;16.22;44.87
24962;BME280;12992;50.884;13.668;2023-04-27T10:52:04;97399.94;;;15.12;47.64
24962;BME280;12992;50.884;13.668;2023-04-27T10:54:30;97379.66;;;14.48;48.50
24962;BME280;12992;50.884;13.668;2023-04-27T10:57:07;97329.13;;;13.69;48.90
24962;BME280;12992;50.884;13.668;2023-04-27T10:59:33;97360.31;;;13.43;50.58
24962;BME280;12992;50.884;13.668;2023-04-27T11:02:00;97348.31;;;13.28;50.43
24962;BME280;12992;50.884;13.668;2023-04-27T11:04:36;97343.28;;;12.95;50.39
24962;BME280;12992;50.884;13.668;2023-04-27T11:07:02;97424.38;;;13.57;48.42
24962;BME280;12992;50.884;13.668;2023-04-27T11:09:29;97482.41;;;14.51;50.18
24962;BME280;12992;50.884;13.668;2023-04-27T11:11:55;97593.34;;;16.23;47.85
24962;BME280;12992;50.884;13.668;2023-04-27T11:14:21;97514.34;;;16.10;47.18
24962;BME280;12992;50.884;13.668;2023-04-27T11:16:47;97493.06;;;15.92;46.62
24962;BME280;12992;50.884;13.668;2023-04-27T11:19:12;97477.41;;;16.21;47.99
24962;BME280;12992;50.884;13.668;2023-04-27T11:21:37;97580.56;;;16.82;48.74
24962;BME280;12992;50.884;13.668;2023-04-27T11:24:04;97533.53;;;17.07;44.54
24962;BME280;12992;50.884;13.668;2023-04-27T11:26:30;97433.97;;;16.23;43.83
24962;BME280;12992;50.884;13.668;2023-04-27T11:29:01;97412.28;;;15.53;46.37
24962;BME280;12992;50.884;13.668;2023-04-27T11:31:44;97473.47;;;15.98;46.83
24962;BME280;12992;50.884;13.668;2023-04-27T11:34:16;97407.72;;;15.39;46.91
24962;BME280;12992;50.884;13.668;2023-04-27T11:36:42;97469.97;;;15.93;47.02
24962;BME280;12992;50.884;13.668;2023-04-27T11:39:07;97408.13;;;15.66;46.51
24962;BME280;12992;50.884;13.668;2023-04-27T11:41:34;97581.81;;;17.18;46.63
24962;BME280;12992;50.884;13.668;2023-04-27T11:44:08;97611.63;;;17.83;47.19
24962;BME280;12992;50.884;13.668;2023-04-27T11:46:35;97586.06;;;18.20;44.39
24962;BME280;12992;50.884;13.668;2023-04-27T11:49:04;97618.25;;;18.95;41.22
24962;BME280;12992;50.884;13.668;2023-04-27T11:51:30;97416.63;;;17.23;43.38
24962;BME280;12992;50.884;13.668;2023-04-27T11:54:03;97581.72;;;18.33;40.91
24962;BME280;12992;50.884;13.668;2023-04-27T11:56:40;97463.13;;;17.25;44.05
24962;BME280;12992;50.884;13.668;2023-04-27T11:59:16;97541.56;;;17.70;44.28
24962;BME280;12992;50.884;13.668;2023-04-27T12:01:41;97480.16;;;17.27;44.34
24962;BME280;12992;50.884;13.668;2023-04-27T12:04:07;97442.44;;;16.85;44.90
24962;BME280;12992;50.884;13.668;2023-04-27T12:06:32;97534.66;;;17.49;47.71
24962;BME280;12992;50.884;13.668;2023-04-27T12:08:57;97477.13;;;17.66;44.39
24962;BME280;12992;50.884;13.668;2023-04-27T12:11:24;97400.63;;;16.35;45.83
24962;BME280;12992;50.884;13.668;2023-04-27T12:13:51;97304.75;;;14.68;47.97
24962;BME280;12992;50.884;13.668;2023-04-27T12:16:17;97472.84;;;16.11;47.26
24962;BME280;12992;50.884;13.668;2023-04-27T12:18:42;97405.56;;;16.09;44.55
24962;BME280;12992;50.884;13.668;2023-04-27T12:21:08;97440.19;;;16.05;46.21
24962;BME280;12992;50.884;13.668;2023-04-27T12:23:34;97275.97;;;14.65;47.59
24962;BME280;12992;50.884;13.668;2023-04-27T12:26:00;97448.72;;;15.69;48.66
24962;BME280;12992;50.884;13.668;2023-04-27T12:28:25;97578.22;;;17.66;44.19
24962;BME280;12992;50.884;13.668;2023-04-27T12:30:51;97552.34;;;18.42;44.76
24962;BME280;12992;50.884;13.668;2023-04-27T12:33:16;97469.72;;;18.18;42.20
24962;BME280;12992;50.884;13.668;2023-04-27T12:35:42;97458.75;;;17.62;44.56
24962;BME280;12992;50.884;13.668;2023-04-27T12:38:07;97540.16;;;18.10;44.30
24962;BME280;12992;50.884;13.668;2023-04-27T12:40:33;97388.59;;;16.79;46.81
24962;BME280;12992;50.884;13.668;2023-04-27T12:42:58;97418.66;;;16.94;45.34
24962;BME280;12992;50.884;13.668;2023-04-27T12:45:24;97387.88;;;16.44;44.65
24962;BME280;12992;50.884;13.668;2023-04-27T12:47:49;97510.31;;;17.13;47.72
24962;BME280;12992;50.884;13.668;2023-04-27T12:50:15;97537.53;;;17.81;46.43
24962;BME280;12992;50.884;13.668;2023-04-27T12:52:41;97520.94;;;18.57;42.84
24962;BME280;12992;50.884;13.668;2023-04-27T12:55:06;97566.09;;;19.07;44.40
24962;BME280;12992;50.884;13.668;2023-04-27T12:57:33;97637.38;;;20.06;41.70
24962;BME280;12992;50.884;13.668;2023-04-27T12:59:58;97528.41;;;19.58;41.15